sensor_id;sensor_type;location;lat;lon;timestamp;temperature;humidity
75164;HTU21D;63746;45.402;37.922;2022-11-15T00:00:35;5.24;70.87
75164;HTU21D;63746;45.402;37.922;2022-11-15T00:03:22;5.22;70.90
75164;HTU21D;63746;45.402;37.922;2022-11-15T00:06:06;5.20;70.95
75164;HTU21D;63746;45.402;37.922;2022-11-15T00:08:51;5.20;71.01
75164;HTU21D;63746;45.402;37.922;2022-11-15T00:11:35;5.21;71.03
75164;HTU21D;63746;45.402;37.922;2022-11-15T00:14:20;5.21;70.93
75164;HTU21D;63746;45.402;37.922;2022-11-15T00:17:04;5.16;70.81
75164;HTU21D;63746;45.402;37.922;2022-11-15T00:19:49;5.13;70.86
75164;HTU21D;63746;45.402;37.922;2022-11-15T00:22:33;5.11;70.87
75164;HTU21D;63746;45.402;37.922;2022-11-15T00:25:18;5.09;70.90
75164;HTU21D;63746;45.402;37.922;2022-11-15T00:28:02;5.08;70.89
75164;HTU21D;63746;45.402;37.922;2022-11-15T00:30:47;5.01;70.66
75164;HTU21D;63746;45.402;37.922;2022-11-15T00:33:32;4.97;70.65
75164;HTU21D;63746;45.402;37.922;2022-11-15T00:36:16;4.88;70.48
75164;HTU21D;63746;45.402;37.922;2022-11-15T00:39:02;4.77;70.48
75164;HTU21D;63746;45.402;37.922;2022-11-15T00:41:47;4.71;70.58
75164;HTU21D;63746;45.402;37.922;2022-11-15T00:44:31;4.65;70.65
75164;HTU21D;63746;45.402;37.922;2022-11-15T00:47:16;4.61;70.77
75164;HTU21D;63746;45.402;37.922;2022-11-15T00:50:00;4.60;70.84
75164;HTU21D;63746;45.402;37.922;2022-11-15T00:52:45;4.57;70.91
75164;HTU21D;63746;45.402;37.922;2022-11-15T00:55:29;4.58;70.97
75164;HTU21D;63746;45.402;37.922;2022-11-15T00:58:14;4.54;71.00
75164;HTU21D;63746;45.402;37.922;2022-11-15T01:01:09;4.54;71.03
75164;HTU21D;63746;45.402;37.922;2022-11-15T01:03:54;4.54;71.08
75164;HTU21D;63746;45.402;37.922;2022-11-15T01:06:38;4.54;71.09
75164;HTU21D;63746;45.402;37.922;2022-11-15T01:09:23;4.52;71.06
75164;HTU21D;63746;45.402;37.922;2022-11-15T01:12:07;4.52;71.09
75164;HTU21D;63746;45.402;37.922;2022-11-15T01:14:52;4.52;71.10
75164;HTU21D;63746;45.402;37.922;2022-11-15T01:17:36;4.49;70.84
75164;HTU21D;63746;45.402;37.922;2022-11-15T01:20:21;4.43;70.75
75164;HTU21D;63746;45.402;37.922;2022-11-15T01:23:05;4.39;70.87
75164;HTU21D;63746;45.402;37.922;2022-11-15T01:25:50;4.38;70.97
75164;HTU21D;63746;45.402;37.922;2022-11-15T01:28:37;4.36;71.00
75164;HTU21D;63746;45.402;37.922;2022-11-15T01:31:22;4.35;70.92
75164;HTU21D;63746;45.402;37.922;2022-11-15T01:34:06;4.32;70.93
75164;HTU21D;63746;45.402;37.922;2022-11-15T01:36:51;4.30;71.00
75164;HTU21D;63746;45.402;37.922;2022-11-15T01:39:35;4.29;71.06
75164;HTU21D;63746;45.402;37.922;2022-11-15T01:42:20;4.29;71.10
75164;HTU21D;63746;45.402;37.922;2022-11-15T01:45:05;4.30;71.12
75164;HTU21D;63746;45.402;37.922;2022-11-15T01:47:52;4.29;71.07
75164;HTU21D;63746;45.402;37.922;2022-11-15T01:50:37;4.28;70.99
75164;HTU21D;63746;45.402;37.922;2022-11-15T01:53:23;4.24;70.93
75164;HTU21D;63746;45.402;37.922;2022-11-15T01:56:12;4.22;70.96
75164;HTU21D;63746;45.402;37.922;2022-11-15T01:59:00;4.19;70.97
75164;HTU21D;63746;45.402;37.922;2022-11-15T02:01:47;4.17;71.00
75164;HTU21D;63746;45.402;37.922;2022-11-15T02:04:34;4.15;70.99
75164;HTU21D;63746;45.402;37.922;2022-11-15T02:07:20;4.14;70.99
75164;HTU21D;63746;45.402;37.922;2022-11-15T02:10:12;4.12;71.06
75164;HTU21D;63746;45.402;37.922;2022-11-15T02:12:57;4.09;71.05
75164;HTU21D;63746;45.402;37.922;2022-11-15T02:15:57;4.08;71.00
75164;HTU21D;63746;45.402;37.922;2022-11-15T02:18:53;4.04;70.97
75164;HTU21D;63746;45.402;37.922;2022-11-15T02:21:55;4.02;70.94
75164;HTU21D;63746;45.402;37.922;2022-11-15T02:28:16;3.97;70.98
75164;HTU21D;63746;45.402;37.922;2022-11-15T02:31:24;3.92;70.94
75164;HTU21D;63746;45.402;37.922;2022-11-15T02:37:11;3.82;70.81
75164;HTU21D;63746;45.402;37.922;2022-11-15T02:43:09;3.68;70.79
75164;HTU21D;63746;45.402;37.922;2022-11-15T02:46:19;3.63;70.99
75164;HTU21D;63746;45.402;37.922;2022-11-15T02:49:06;3.62;71.13
75164;HTU21D;63746;45.402;37.922;2022-11-15T02:51:51;3.62;71.22
75164;HTU21D;63746;45.402;37.922;2022-11-15T02:54:36;3.64;71.25
75164;HTU21D;63746;45.402;37.922;2022-11-15T03:00:40;3.62;71.17
75164;HTU21D;63746;45.402;37.922;2022-11-15T03:06:42;3.59;71.16
75164;HTU21D;63746;45.402;37.922;2022-11-15T03:09:39;3.58;71.19
75164;HTU21D;63746;45.402;37.922;2022-11-15T03:12:33;3.56;71.23
75164;HTU21D;63746;45.402;37.922;2022-11-15T03:15:38;3.57;71.22
75164;HTU21D;63746;45.402;37.922;2022-11-15T03:18:32;3.57;71.20
75164;HTU21D;63746;45.402;37.922;2022-11-15T03:21:19;3.56;71.22
75164;HTU21D;63746;45.402;37.922;2022-11-15T03:24:06;3.55;71.24
75164;HTU21D;63746;45.402;37.922;2022-11-15T03:26:54;3.52;71.22
75164;HTU21D;63746;45.402;37.922;2022-11-15T03:29:44;3.53;71.26
75164;HTU21D;63746;45.402;37.922;2022-11-15T03:32:33;3.53;71.29
75164;HTU21D;63746;45.402;37.922;2022-11-15T03:35:23;3.53;71.25
75164;HTU21D;63746;45.402;37.922;2022-11-15T03:41:01;3.52;71.26
75164;HTU21D;63746;45.402;37.922;2022-11-15T03:44:05;3.50;71.28
75164;HTU21D;63746;45.402;37.922;2022-11-15T03:49:45;3.46;71.12
75164;HTU21D;63746;45.402;37.922;2022-11-15T03:52:33;3.44;71.19
75164;HTU21D;63746;45.402;37.922;2022-11-15T03:55:19;3.44;71.26
75164;HTU21D;63746;45.402;37.922;2022-11-15T03:58:04;3.45;71.25
75164;HTU21D;63746;45.402;37.922;2022-11-15T04:00:48;3.43;71.17
75164;HTU21D;63746;45.402;37.922;2022-11-15T04:03:33;3.42;71.20
75164;HTU21D;63746;45.402;37.922;2022-11-15T04:06:17;3.41;71.21
75164;HTU21D;63746;45.402;37.922;2022-11-15T04:09:02;3.41;71.20
75164;HTU21D;63746;45.402;37.922;2022-11-15T04:11:46;3.35;71.05
75164;HTU21D;63746;45.402;37.922;2022-11-15T04:14:31;3.31;71.03
75164;HTU21D;63746;45.402;37.922;2022-11-15T04:17:15;3.30;71.10
75164;HTU21D;63746;45.402;37.922;2022-11-15T04:19:59;3.28;71.10
75164;HTU21D;63746;45.402;37.922;2022-11-15T04:23:14;3.20;70.86
75164;HTU21D;63746;45.402;37.922;2022-11-15T04:26:20;3.10;70.86
75164;HTU21D;63746;45.402;37.922;2022-11-15T04:29:06;3.08;71.06
75164;HTU21D;63746;45.402;37.922;2022-11-15T04:32:09;3.04;71.24
75164;HTU21D;63746;45.402;37.922;2022-11-15T04:34:53;3.06;71.36
75164;HTU21D;63746;45.402;37.922;2022-11-15T04:37:38;3.04;71.38
75164;HTU21D;63746;45.402;37.922;2022-11-15T04:40:22;3.04;71.38
75164;HTU21D;63746;45.402;37.922;2022-11-15T04:43:07;3.02;71.29
75164;HTU21D;63746;45.402;37.922;2022-11-15T04:45:51;3.00;71.29
75164;HTU21D;63746;45.402;37.922;2022-11-15T04:48:36;2.98;71.30
75164;HTU21D;63746;45.402;37.922;2022-11-15T04:51:20;2.97;71.35
75164;HTU21D;63746;45.402;37.922;2022-11-15T04:54:05;2.95;71.32
75164;HTU21D;63746;45.402;37.922;2022-11-15T04:56:49;2.89;71.26
75164;HTU21D;63746;45.402;37.922;2022-11-15T04:59:34;2.84;71.12
75164;HTU21D;63746;45.402;37.922;2022-11-15T05:02:18;2.78;71.19
75164;HTU21D;63746;45.402;37.922;2022-11-15T05:05:03;2.73;71.30
75164;HTU21D;63746;45.402;37.922;2022-11-15T05:07:47;2.69;71.29
75164;HTU21D;63746;45.402;37.922;2022-11-15T05:10:31;2.64;71.16
75164;HTU21D;63746;45.402;37.922;2022-11-15T05:13:16;2.57;71.42
75164;HTU21D;63746;45.402;37.922;2022-11-15T05:16:01;2.55;71.54
75164;HTU21D;63746;45.402;37.922;2022-11-15T05:18:45;2.52;71.68
75164;HTU21D;63746;45.402;37.922;2022-11-15T05:21:30;2.52;71.71
75164;HTU21D;63746;45.402;37.922;2022-11-15T05:24:14;2.50;71.76
75164;HTU21D;63746;45.402;37.922;2022-11-15T05:26:59;2.50;71.84
75164;HTU21D;63746;45.402;37.922;2022-11-15T05:29:44;2.51;72.00
75164;HTU21D;63746;45.402;37.922;2022-11-15T05:32:28;2.54;72.19
75164;HTU21D;63746;45.402;37.922;2022-11-15T05:35:28;2.56;72.15
75164;HTU21D;63746;45.402;37.922;2022-11-15T05:38:13;2.58;72.12
75164;HTU21D;63746;45.402;37.922;2022-11-15T05:41:01;2.60;72.21
75164;HTU21D;63746;45.402;37.922;2022-11-15T05:43:47;2.66;72.35
75164;HTU21D;63746;45.402;37.922;2022-11-15T05:46:33;2.71;72.37
75164;HTU21D;63746;45.402;37.922;2022-11-15T05:49:20;2.74;72.30
75164;HTU21D;63746;45.402;37.922;2022-11-15T05:52:07;2.75;72.26
75164;HTU21D;63746;45.402;37.922;2022-11-15T05:54:54;2.78;72.29
75164;HTU21D;63746;45.402;37.922;2022-11-15T05:57:40;2.81;72.41
75164;HTU21D;63746;45.402;37.922;2022-11-15T06:00:24;2.86;72.34
75164;HTU21D;63746;45.402;37.922;2022-11-15T06:03:09;2.90;72.44
75164;HTU21D;63746;45.402;37.922;2022-11-15T06:05:53;2.95;72.49
75164;HTU21D;63746;45.402;37.922;2022-11-15T06:08:37;3.01;72.63
75164;HTU21D;63746;45.402;37.922;2022-11-15T06:11:22;3.10;72.74
75164;HTU21D;63746;45.402;37.922;2022-11-15T06:14:06;3.16;72.57
75164;HTU21D;63746;45.402;37.922;2022-11-15T06:16:51;3.21;72.65
75164;HTU21D;63746;45.402;37.922;2022-11-15T06:19:36;3.26;72.52
75164;HTU21D;63746;45.402;37.922;2022-11-15T06:22:20;3.33;72.61
75164;HTU21D;63746;45.402;37.922;2022-11-15T06:25:04;3.40;72.55
75164;HTU21D;63746;45.402;37.922;2022-11-15T06:27:57;3.48;72.64
75164;HTU21D;63746;45.402;37.922;2022-11-15T06:30:42;3.59;72.76
75164;HTU21D;63746;45.402;37.922;2022-11-15T06:33:27;3.67;72.74
75164;HTU21D;63746;45.402;37.922;2022-11-15T06:36:12;3.68;72.47
75164;HTU21D;63746;45.402;37.922;2022-11-15T06:39:01;3.70;72.48
75164;HTU21D;63746;45.402;37.922;2022-11-15T06:41:45;3.78;72.72
75164;HTU21D;63746;45.402;37.922;2022-11-15T06:44:30;3.88;72.83
75164;HTU21D;63746;45.402;37.922;2022-11-15T06:47:14;3.98;72.75
75164;HTU21D;63746;45.402;37.922;2022-11-15T06:49:59;4.03;72.63
75164;HTU21D;63746;45.402;37.922;2022-11-15T06:53:54;4.08;72.60
75164;HTU21D;63746;45.402;37.922;2022-11-15T06:56:38;4.16;72.72
75164;HTU21D;63746;45.402;37.922;2022-11-15T06:59:23;4.26;72.87
75164;HTU21D;63746;45.402;37.922;2022-11-15T07:02:12;4.36;72.83
75164;HTU21D;63746;45.402;37.922;2022-11-15T07:04:57;4.41;72.63
75164;HTU21D;63746;45.402;37.922;2022-11-15T07:07:41;4.45;72.54
75164;HTU21D;63746;45.402;37.922;2022-11-15T07:10:26;4.48;72.58
75164;HTU21D;63746;45.402;37.922;2022-11-15T07:13:11;4.51;72.47
75164;HTU21D;63746;45.402;37.922;2022-11-15T07:15:55;4.57;72.64
75164;HTU21D;63746;45.402;37.922;2022-11-15T07:18:40;4.63;72.70
75164;HTU21D;63746;45.402;37.922;2022-11-15T07:21:25;4.68;72.63
75164;HTU21D;63746;45.402;37.922;2022-11-15T07:24:09;4.74;72.70
75164;HTU21D;63746;45.402;37.922;2022-11-15T07:38:39;6.71;71.54
75164;HTU21D;63746;45.402;37.922;2022-11-15T07:41:23;6.91;71.85
75164;HTU21D;63746;45.402;37.922;2022-11-15T07:44:08;7.05;72.09
75164;HTU21D;63746;45.402;37.922;2022-11-15T07:46:53;7.10;71.74
75164;HTU21D;63746;45.402;37.922;2022-11-15T07:49:37;7.01;71.49
75164;HTU21D;63746;45.402;37.922;2022-11-15T07:52:22;6.95;71.68
75164;HTU21D;63746;45.402;37.922;2022-11-15T07:55:07;6.96;71.99
75164;HTU21D;63746;45.402;37.922;2022-11-15T07:57:51;6.99;72.18
75164;HTU21D;63746;45.402;37.922;2022-11-15T08:00:36;7.09;72.51
75164;HTU21D;63746;45.402;37.922;2022-11-15T08:03:21;7.22;72.74
75164;HTU21D;63746;45.402;37.922;2022-11-15T08:06:06;7.31;72.54
75164;HTU21D;63746;45.402;37.922;2022-11-15T08:08:50;7.37;72.54
75164;HTU21D;63746;45.402;37.922;2022-11-15T08:11:35;7.52;72.81
75164;HTU21D;63746;45.402;37.922;2022-11-15T08:14:20;7.68;72.91
75164;HTU21D;63746;45.402;37.922;2022-11-15T08:17:06;7.83;72.79
75164;HTU21D;63746;45.402;37.922;2022-11-15T08:19:50;7.96;72.70
75164;HTU21D;63746;45.402;37.922;2022-11-15T08:22:35;8.11;72.65
75164;HTU21D;63746;45.402;37.922;2022-11-15T08:25:19;8.24;72.77
75164;HTU21D;63746;45.402;37.922;2022-11-15T08:28:05;8.46;72.70
75164;HTU21D;63746;45.402;37.922;2022-11-15T08:30:50;8.55;72.19
75164;HTU21D;63746;45.402;37.922;2022-11-15T08:33:35;8.65;72.34
75164;HTU21D;63746;45.402;37.922;2022-11-15T08:36:20;8.82;72.29
75164;HTU21D;63746;45.402;37.922;2022-11-15T08:39:05;8.98;72.21
75164;HTU21D;63746;45.402;37.922;2022-11-15T08:41:50;9.10;71.96
75164;HTU21D;63746;45.402;37.922;2022-11-15T08:44:35;9.21;71.75
75164;HTU21D;63746;45.402;37.922;2022-11-15T08:47:19;9.26;71.61
75164;HTU21D;63746;45.402;37.922;2022-11-15T08:50:04;9.33;71.60
75164;HTU21D;63746;45.402;37.922;2022-11-15T08:52:49;9.41;71.64
75164;HTU21D;63746;45.402;37.922;2022-11-15T08:55:38;9.56;71.71
75164;HTU21D;63746;45.402;37.922;2022-11-15T08:58:23;9.66;71.41
75164;HTU21D;63746;45.402;37.922;2022-11-15T09:01:16;9.68;71.16
75164;HTU21D;63746;45.402;37.922;2022-11-15T09:04:01;9.72;71.32
75164;HTU21D;63746;45.402;37.922;2022-11-15T09:06:47;9.79;71.29
75164;HTU21D;63746;45.402;37.922;2022-11-15T09:09:32;9.89;71.38
75164;HTU21D;63746;45.402;37.922;2022-11-15T09:12:17;9.99;71.32
75164;HTU21D;63746;45.402;37.922;2022-11-15T09:15:02;10.11;71.30
75164;HTU21D;63746;45.402;37.922;2022-11-15T09:17:46;10.22;71.27
75164;HTU21D;63746;45.402;37.922;2022-11-15T09:20:31;10.30;71.00
75164;HTU21D;63746;45.402;37.922;2022-11-15T09:23:15;10.30;70.87
75164;HTU21D;63746;45.402;37.922;2022-11-15T09:26:01;10.37;70.93
75164;HTU21D;63746;45.402;37.922;2022-11-15T09:28:47;10.40;70.73
75164;HTU21D;63746;45.402;37.922;2022-11-15T09:31:33;10.41;70.76
75164;HTU21D;63746;45.402;37.922;2022-11-15T09:34:17;10.42;70.76
75164;HTU21D;63746;45.402;37.922;2022-11-15T09:37:02;10.45;70.65
75164;HTU21D;63746;45.402;37.922;2022-11-15T09:39:47;10.50;70.92
75164;HTU21D;63746;45.402;37.922;2022-11-15T09:43:00;10.62;70.34
75164;HTU21D;63746;45.402;37.922;2022-11-15T09:49:02;10.69;70.49
75164;HTU21D;63746;45.402;37.922;2022-11-15T09:52:02;10.72;70.61
75164;HTU21D;63746;45.402;37.922;2022-11-15T09:54:34;10.75;70.60
75164;HTU21D;63746;45.402;37.922;2022-11-15T10:00:02;10.80;70.20
75164;HTU21D;63746;45.402;37.922;2022-11-15T10:02:58;10.84;69.91
75164;HTU21D;63746;45.402;37.922;2022-11-15T10:05:38;10.87;70.54
75164;HTU21D;63746;45.402;37.922;2022-11-15T10:08:40;10.90;70.16
75164;HTU21D;63746;45.402;37.922;2022-11-15T10:11:11;10.98;70.50
75164;HTU21D;63746;45.402;37.922;2022-11-15T10:13:43;11.04;70.51
75164;HTU21D;63746;45.402;37.922;2022-11-15T10:19:38;11.27;70.07
75164;HTU21D;63746;45.402;37.922;2022-11-15T10:27:57;11.32;69.79
75164;HTU21D;63746;45.402;37.922;2022-11-15T10:30:32;11.32;69.91
75164;HTU21D;63746;45.402;37.922;2022-11-15T10:32:58;11.37;70.28
75164;HTU21D;63746;45.402;37.922;2022-11-15T10:35:34;11.42;70.23
75164;HTU21D;63746;45.402;37.922;2022-11-15T10:38:09;11.45;69.99
75164;HTU21D;63746;45.402;37.922;2022-11-15T10:40:36;11.48;70.08
75164;HTU21D;63746;45.402;37.922;2022-11-15T10:43:18;11.51;69.56
75164;HTU21D;63746;45.402;37.922;2022-11-15T10:45:45;11.52;68.58
75164;HTU21D;63746;45.402;37.922;2022-11-15T10:50:40;11.57;70.12
75164;HTU21D;63746;45.402;37.922;2022-11-15T10:53:43;11.62;69.81
75164;HTU21D;63746;45.402;37.922;2022-11-15T10:56:14;11.67;69.84
75164;HTU21D;63746;45.402;37.922;2022-11-15T10:58:50;11.68;69.87
75164;HTU21D;63746;45.402;37.922;2022-11-15T11:01:23;11.68;69.72
75164;HTU21D;63746;45.402;37.922;2022-11-15T11:04:09;11.71;69.51
75164;HTU21D;63746;45.402;37.922;2022-11-15T11:06:51;11.72;69.46
75164;HTU21D;63746;45.402;37.922;2022-11-15T11:09:37;11.76;69.33
75164;HTU21D;63746;45.402;37.922;2022-11-15T11:12:09;11.74;69.66
75164;HTU21D;63746;45.402;37.922;2022-11-15T11:14:37;11.71;69.61
75164;HTU21D;63746;45.402;37.922;2022-11-15T11:25:35;11.58;69.12
75164;HTU21D;63746;45.402;37.922;2022-11-15T11:31:29;11.42;69.41
75164;HTU21D;63746;45.402;37.922;2022-11-15T11:42:03;11.24;69.72
75164;HTU21D;63746;45.402;37.922;2022-11-15T11:44:35;11.20;69.56
75164;HTU21D;63746;45.402;37.922;2022-11-15T11:47:11;11.12;69.32
75164;HTU21D;63746;45.402;37.922;2022-11-15T11:52:26;10.98;69.63
75164;HTU21D;63746;45.402;37.922;2022-11-15T11:55:05;10.97;69.52
75164;HTU21D;63746;45.402;37.922;2022-11-15T11:57:53;10.93;69.67
75164;HTU21D;63746;45.402;37.922;2022-11-15T12:00:23;10.90;69.78
75164;HTU21D;63746;45.402;37.922;2022-11-15T12:11:19;10.72;69.18
75164;HTU21D;63746;45.402;37.922;2022-11-15T12:13:49;10.68;69.62
75164;HTU21D;63746;45.402;37.922;2022-11-15T12:16:26;10.65;69.58
75164;HTU21D;63746;45.402;37.922;2022-11-15T12:18:54;10.66;69.82
75164;HTU21D;63746;45.402;37.922;2022-11-15T12:24:28;10.58;69.56
75164;HTU21D;63746;45.402;37.922;2022-11-15T12:29:46;10.54;69.72
75164;HTU21D;63746;45.402;37.922;2022-11-15T12:32:35;10.53;69.39
75164;HTU21D;63746;45.402;37.922;2022-11-15T12:35:20;10.52;69.81
75164;HTU21D;63746;45.402;37.922;2022-11-15T12:37:49;10.52;69.82
75164;HTU21D;63746;45.402;37.922;2022-11-15T12:45:38;10.49;69.78
75164;HTU21D;63746;45.402;37.922;2022-11-15T12:59:00;10.40;69.06
75164;HTU21D;63746;45.402;37.922;2022-11-15T13:07:04;10.24;69.25
75164;HTU21D;63746;45.402;37.922;2022-11-15T13:22:22;9.89;69.62
75164;HTU21D;63746;45.402;37.922;2022-11-15T13:25:16;9.82;69.46
75164;HTU21D;63746;45.402;37.922;2022-11-15T13:27:50;9.77;69.67
75164;HTU21D;63746;45.402;37.922;2022-11-15T13:30:26;9.75;69.72
75164;HTU21D;63746;45.402;37.922;2022-11-15T13:32:53;9.71;69.71
75164;HTU21D;63746;45.402;37.922;2022-11-15T13:35:24;9.68;69.61
75164;HTU21D;63746;45.402;37.922;2022-11-15T13:37:52;9.63;69.62
75164;HTU21D;63746;45.402;37.922;2022-11-15T13:40:21;9.57;69.65
75164;HTU21D;63746;45.402;37.922;2022-11-15T13:42:48;9.54;69.74
75164;HTU21D;63746;45.402;37.922;2022-11-15T13:45:16;9.52;69.74
75164;HTU21D;63746;45.402;37.922;2022-11-15T13:47:43;9.49;69.78
75164;HTU21D;63746;45.402;37.922;2022-11-15T13:50:12;9.49;69.81
75164;HTU21D;63746;45.402;37.922;2022-11-15T13:52:40;9.48;69.81
75164;HTU21D;63746;45.402;37.922;2022-11-15T13:55:16;9.47;69.74
75164;HTU21D;63746;45.402;37.922;2022-11-15T13:57:53;9.44;69.57
75164;HTU21D;63746;45.402;37.922;2022-11-15T14:00:36;9.40;69.39
75164;HTU21D;63746;45.402;37.922;2022-11-15T14:03:18;9.35;69.49
75164;HTU21D;63746;45.402;37.922;2022-11-15T14:08:28;9.29;69.57
75164;HTU21D;63746;45.402;37.922;2022-11-15T14:13:36;9.22;69.55
75164;HTU21D;63746;45.402;37.922;2022-11-15T14:16:19;9.19;69.36
75164;HTU21D;63746;45.402;37.922;2022-11-15T14:18:53;9.16;69.49
75164;HTU21D;63746;45.402;37.922;2022-11-15T14:21:20;9.11;69.52
75164;HTU21D;63746;45.402;37.922;2022-11-15T14:23:46;9.08;69.50
75164;HTU21D;63746;45.402;37.922;2022-11-15T14:26:30;9.04;69.29
75164;HTU21D;63746;45.402;37.922;2022-11-15T14:28:56;8.97;68.72
75164;HTU21D;63746;45.402;37.922;2022-11-15T14:31:22;8.91;69.31
75164;HTU21D;63746;45.402;37.922;2022-11-15T14:33:48;8.87;69.39
75164;HTU21D;63746;45.402;37.922;2022-11-15T14:36:19;8.79;69.33
75164;HTU21D;63746;45.402;37.922;2022-11-15T14:38:46;8.74;69.36
75164;HTU21D;63746;45.402;37.922;2022-11-15T14:41:22;8.70;69.28
75164;HTU21D;63746;45.402;37.922;2022-11-15T14:43:49;8.64;69.41
75164;HTU21D;63746;45.402;37.922;2022-11-15T14:46:15;8.60;69.41
75164;HTU21D;63746;45.402;37.922;2022-11-15T14:48:41;8.56;69.41
75164;HTU21D;63746;45.402;37.922;2022-11-15T14:51:16;8.50;69.33
75164;HTU21D;63746;45.402;37.922;2022-11-15T14:53:43;8.46;69.48
75164;HTU21D;63746;45.402;37.922;2022-11-15T14:56:09;8.43;69.56
75164;HTU21D;63746;45.402;37.922;2022-11-15T14:58:36;8.39;69.56
75164;HTU21D;63746;45.402;37.922;2022-11-15T15:01:08;8.38;69.57
75164;HTU21D;63746;45.402;37.922;2022-11-15T15:03:36;8.33;69.55
75164;HTU21D;63746;45.402;37.922;2022-11-15T15:06:04;8.31;69.55
75164;HTU21D;63746;45.402;37.922;2022-11-15T15:08:30;8.29;69.54
75164;HTU21D;63746;45.402;37.922;2022-11-15T15:10:56;8.24;69.52
75164;HTU21D;63746;45.402;37.922;2022-11-15T15:13:23;8.20;69.49
75164;HTU21D;63746;45.402;37.922;2022-11-15T15:15:51;8.16;69.44
75164;HTU21D;63746;45.402;37.922;2022-11-15T15:18:17;8.11;69.45
75164;HTU21D;63746;45.402;37.922;2022-11-15T15:20:45;8.06;69.49
75164;HTU21D;63746;45.402;37.922;2022-11-15T15:23:18;8.02;69.49
75164;HTU21D;63746;45.402;37.922;2022-11-15T15:25:45;7.98;69.50
75164;HTU21D;63746;45.402;37.922;2022-11-15T15:28:12;7.93;69.47
75164;HTU21D;63746;45.402;37.922;2022-11-15T15:30:38;7.89;69.49
75164;HTU21D;63746;45.402;37.922;2022-11-15T15:33:04;7.86;69.52
75164;HTU21D;63746;45.402;37.922;2022-11-15T15:35:32;7.82;69.53
75164;HTU21D;63746;45.402;37.922;2022-11-15T15:38:11;7.78;69.54
75164;HTU21D;63746;45.402;37.922;2022-11-15T15:40:38;7.74;69.50
75164;HTU21D;63746;45.402;37.922;2022-11-15T15:43:04;7.71;69.52
75164;HTU21D;63746;45.402;37.922;2022-11-15T15:45:30;7.67;69.55
75164;HTU21D;63746;45.402;37.922;2022-11-15T15:47:57;7.61;69.56
75164;HTU21D;63746;45.402;37.922;2022-11-15T15:50:26;7.59;69.51
75164;HTU21D;63746;45.402;37.922;2022-11-15T15:52:55;7.52;69.42
75164;HTU21D;63746;45.402;37.922;2022-11-15T15:55:23;7.46;69.39
75164;HTU21D;63746;45.402;37.922;2022-11-15T15:57:49;7.41;69.52
75164;HTU21D;63746;45.402;37.922;2022-11-15T16:00:16;7.38;69.58
75164;HTU21D;63746;45.402;37.922;2022-11-15T16:02:43;7.35;69.58
75164;HTU21D;63746;45.402;37.922;2022-11-15T16:05:09;7.30;69.56
75164;HTU21D;63746;45.402;37.922;2022-11-15T16:07:36;7.27;69.58
75164;HTU21D;63746;45.402;37.922;2022-11-15T16:10:24;7.23;69.42
75164;HTU21D;63746;45.402;37.922;2022-11-15T16:12:51;7.18;69.61
75164;HTU21D;63746;45.402;37.922;2022-11-15T16:15:18;7.18;69.71
75164;HTU21D;63746;45.402;37.922;2022-11-15T16:17:51;7.15;69.69
75164;HTU21D;63746;45.402;37.922;2022-11-15T16:22:59;7.09;69.61
75164;HTU21D;63746;45.402;37.922;2022-11-15T16:25:28;7.05;69.63
75164;HTU21D;63746;45.402;37.922;2022-11-15T16:27:55;7.02;69.61
75164;HTU21D;63746;45.402;37.922;2022-11-15T16:30:22;6.99;69.63
75164;HTU21D;63746;45.402;37.922;2022-11-15T16:32:49;6.98;69.61
75164;HTU21D;63746;45.402;37.922;2022-11-15T16:35:16;6.93;69.58
75164;HTU21D;63746;45.402;37.922;2022-11-15T16:37:42;6.88;69.59
75164;HTU21D;63746;45.402;37.922;2022-11-15T16:42:49;6.83;69.59
75164;HTU21D;63746;45.402;37.922;2022-11-15T16:45:15;6.81;69.64
75164;HTU21D;63746;45.402;37.922;2022-11-15T16:47:41;6.79;69.67
75164;HTU21D;63746;45.402;37.922;2022-11-15T16:50:21;6.75;69.59
75164;HTU21D;63746;45.402;37.922;2022-11-15T16:52:51;6.70;69.58
75164;HTU21D;63746;45.402;37.922;2022-11-15T16:55:18;6.67;69.52
75164;HTU21D;63746;45.402;37.922;2022-11-15T16:57:45;6.61;69.58
75164;HTU21D;63746;45.402;37.922;2022-11-15T17:00:11;6.57;69.65
75164;HTU21D;63746;45.402;37.922;2022-11-15T17:02:42;6.54;69.71
75164;HTU21D;63746;45.402;37.922;2022-11-15T17:05:09;6.53;69.74
75164;HTU21D;63746;45.402;37.922;2022-11-15T17:07:35;6.52;69.74
75164;HTU21D;63746;45.402;37.922;2022-11-15T17:10:01;6.50;69.76
75164;HTU21D;63746;45.402;37.922;2022-11-15T17:12:27;6.48;69.78
75164;HTU21D;63746;45.402;37.922;2022-11-15T17:14:56;6.46;69.78
75164;HTU21D;63746;45.402;37.922;2022-11-15T17:17:22;6.43;69.74
75164;HTU21D;63746;45.402;37.922;2022-11-15T17:19:51;6.41;69.72
75164;HTU21D;63746;45.402;37.922;2022-11-15T17:22:18;6.37;69.68
75164;HTU21D;63746;45.402;37.922;2022-11-15T17:24:45;6.34;69.68
75164;HTU21D;63746;45.402;37.922;2022-11-15T17:27:11;6.31;69.71
75164;HTU21D;63746;45.402;37.922;2022-11-15T17:29:37;6.29;69.76
75164;HTU21D;63746;45.402;37.922;2022-11-15T17:32:03;6.27;69.74
75164;HTU21D;63746;45.402;37.922;2022-11-15T17:34:29;6.25;69.72
75164;HTU21D;63746;45.402;37.922;2022-11-15T17:36:55;6.21;69.67
75164;HTU21D;63746;45.402;37.922;2022-11-15T17:39:21;6.17;69.66
75164;HTU21D;63746;45.402;37.922;2022-11-15T17:41:48;6.12;69.66
75164;HTU21D;63746;45.402;37.922;2022-11-15T17:44:15;6.11;69.63
75164;HTU21D;63746;45.402;37.922;2022-11-15T17:46:42;6.15;70.11
75164;HTU21D;63746;45.402;37.922;2022-11-15T17:49:08;6.16;69.94
75164;HTU21D;63746;45.402;37.922;2022-11-15T17:51:37;6.14;69.77
75164;HTU21D;63746;45.402;37.922;2022-11-15T17:54:09;6.09;69.68
75164;HTU21D;63746;45.402;37.922;2022-11-15T17:56:39;6.05;69.63
75164;HTU21D;63746;45.402;37.922;2022-11-15T17:59:05;6.00;69.16
75164;HTU21D;63746;45.402;37.922;2022-11-15T18:01:36;5.92;69.44
75164;HTU21D;63746;45.402;37.922;2022-11-15T18:04:06;5.85;69.58
75164;HTU21D;63746;45.402;37.922;2022-11-15T18:06:34;5.81;69.63
75164;HTU21D;63746;45.402;37.922;2022-11-15T18:09:01;5.77;69.68
75164;HTU21D;63746;45.402;37.922;2022-11-15T18:11:33;5.77;69.82
75164;HTU21D;63746;45.402;37.922;2022-11-15T18:14:02;5.77;69.81
75164;HTU21D;63746;45.402;37.922;2022-11-15T18:16:31;5.74;69.82
75164;HTU21D;63746;45.402;37.922;2022-11-15T18:18:58;5.72;69.83
75164;HTU21D;63746;45.402;37.922;2022-11-15T18:21:28;5.70;69.82
75164;HTU21D;63746;45.402;37.922;2022-11-15T18:23:57;5.70;69.83
75164;HTU21D;63746;45.402;37.922;2022-11-15T18:26:26;5.68;69.86
75164;HTU21D;63746;45.402;37.922;2022-11-15T18:28:54;5.68;69.85
75164;HTU21D;63746;45.402;37.922;2022-11-15T18:31:25;5.65;69.84
75164;HTU21D;63746;45.402;37.922;2022-11-15T18:33:52;5.64;69.81
75164;HTU21D;63746;45.402;37.922;2022-11-15T18:36:21;5.63;69.83
75164;HTU21D;63746;45.402;37.922;2022-11-15T18:38:47;5.61;69.53
75164;HTU21D;63746;45.402;37.922;2022-11-15T18:41:18;5.57;69.78